sensor_id;sensor_type;location;lat;lon;timestamp;P1;durP1;ratioP1;P2;durP2;ratioP2
2944;SDS011;1482;51.398;7.128;2023-07-13T00:01:11;5.87;;;1.47;;
2944;SDS011;1482;51.398;7.128;2023-07-13T00:03:37;2.73;;;1.90;;
2944;SDS011;1482;51.398;7.128;2023-07-13T00:06:06;4.83;;;2.10;;
2944;SDS011;1482;51.398;7.128;2023-07-13T00:08:32;4.30;;;2.40;;
2944;SDS011;1482;51.398;7.128;2023-07-13T00:10:59;9.30;;;2.50;;
2944;SDS011;1482;51.398;7.128;2023-07-13T00:13:28;6.60;;;2.03;;
2944;SDS011;1482;51.398;7.128;2023-07-13T00:15:54;3.60;;;1.57;;
2944;SDS011;1482;51.398;7.128;2023-07-13T00:18:21;3.93;;;2.13;;
2944;SDS011;1482;51.398;7.128;2023-07-13T00:20:46;5.73;;;1.70;;
2944;SDS011;1482;51.398;7.128;2023-07-13T00:23:13;5.73;;;2.33;;
2944;SDS011;1482;51.398;7.128;2023-07-13T00:25:39;7.37;;;1.97;;
2944;SDS011;1482;51.398;7.128;2023-07-13T00:28:04;5.40;;;1.83;;
2944;SDS011;1482;51.398;7.128;2023-07-13T00:30:30;3.60;;;1.90;;
2944;SDS011;1482;51.398;7.128;2023-07-13T00:32:56;4.30;;;1.67;;
2944;SDS011;1482;51.398;7.128;2023-07-13T00:35:22;3.93;;;1.70;;
2944;SDS011;1482;51.398;7.128;2023-07-13T00:37:48;8.53;;;2.57;;
2944;SDS011;1482;51.398;7.128;2023-07-13T00:40:17;4.20;;;1.73;;
2944;SDS011;1482;51.398;7.128;2023-07-13T00:42:43;3.97;;;2.10;;
2944;SDS011;1482;51.398;7.128;2023-07-13T00:47:36;9.63;;;2.10;;
2944;SDS011;1482;51.398;7.128;2023-07-13T00:50:02;5.07;;;2.03;;
2944;SDS011;1482;51.398;7.128;2023-07-13T00:52:31;5.73;;;2.33;;
2944;SDS011;1482;51.398;7.128;2023-07-13T00:54:57;5.50;;;2.70;;
2944;SDS011;1482;51.398;7.128;2023-07-13T00:57:23;7.50;;;2.20;;
2944;SDS011;1482;51.398;7.128;2023-07-13T00:59:51;4.07;;;2.30;;
2944;SDS011;1482;51.398;7.128;2023-07-13T01:02:20;5.00;;;1.90;;
2944;SDS011;1482;51.398;7.128;2023-07-13T01:04:47;11.07;;;2.90;;
2944;SDS011;1482;51.398;7.128;2023-07-13T01:07:13;5.27;;;2.00;;
2944;SDS011;1482;51.398;7.128;2023-07-13T01:09:39;5.70;;;1.93;;
2944;SDS011;1482;51.398;7.128;2023-07-13T01:12:04;7.13;;;2.03;;
2944;SDS011;1482;51.398;7.128;2023-07-13T01:14:30;7.93;;;2.10;;
2944;SDS011;1482;51.398;7.128;2023-07-13T01:16:56;6.53;;;1.87;;
2944;SDS011;1482;51.398;7.128;2023-07-13T01:22:01;3.73;;;1.93;;
2944;SDS011;1482;51.398;7.128;2023-07-13T01:24:27;9.50;;;2.30;;
2944;SDS011;1482;51.398;7.128;2023-07-13T01:26:53;2.73;;;1.80;;
2944;SDS011;1482;51.398;7.128;2023-07-13T01:29:20;7.43;;;2.67;;
2944;SDS011;1482;51.398;7.128;2023-07-13T01:31:46;6.77;;;2.17;;
2944;SDS011;1482;51.398;7.128;2023-07-13T01:34:12;7.33;;;1.90;;
2944;SDS011;1482;51.398;7.128;2023-07-13T01:36:38;6.10;;;1.83;;
2944;SDS011;1482;51.398;7.128;2023-07-13T01:39:03;5.90;;;1.90;;
2944;SDS011;1482;51.398;7.128;2023-07-13T01:41:29;7.63;;;1.80;;
2944;SDS011;1482;51.398;7.128;2023-07-13T01:43:54;6.63;;;1.90;;
2944;SDS011;1482;51.398;7.128;2023-07-13T01:46:20;5.50;;;2.03;;
2944;SDS011;1482;51.398;7.128;2023-07-13T01:48:46;3.53;;;2.33;;
2944;SDS011;1482;51.398;7.128;2023-07-13T01:51:11;10.53;;;2.60;;
2944;SDS011;1482;51.398;7.128;2023-07-13T01:53:37;7.50;;;2.30;;
2944;SDS011;1482;51.398;7.128;2023-07-13T01:56:02;6.50;;;3.50;;
2944;SDS011;1482;51.398;7.128;2023-07-13T01:58:28;4.53;;;2.03;;
2944;SDS011;1482;51.398;7.128;2023-07-13T02:00:53;6.43;;;2.30;;
2944;SDS011;1482;51.398;7.128;2023-07-13T02:03:19;5.53;;;2.10;;
2944;SDS011;1482;51.398;7.128;2023-07-13T02:05:45;12.53;;;2.57;;
2944;SDS011;1482;51.398;7.128;2023-07-13T02:08:10;4.90;;;2.27;;
2944;SDS011;1482;51.398;7.128;2023-07-13T02:10:36;5.43;;;2.33;;
2944;SDS011;1482;51.398;7.128;2023-07-13T02:13:02;7.40;;;2.17;;
2944;SDS011;1482;51.398;7.128;2023-07-13T02:15:29;3.73;;;2.00;;
2944;SDS011;1482;51.398;7.128;2023-07-13T02:17:54;10.03;;;2.73;;
2944;SDS011;1482;51.398;7.128;2023-07-13T02:20:21;4.00;;;2.03;;
2944;SDS011;1482;51.398;7.128;2023-07-13T02:22:47;7.93;;;3.20;;
2944;SDS011;1482;51.398;7.128;2023-07-13T02:25:13;5.33;;;2.37;;
2944;SDS011;1482;51.398;7.128;2023-07-13T02:27:39;4.33;;;1.90;;
2944;SDS011;1482;51.398;7.128;2023-07-13T02:30:05;8.80;;;2.00;;
2944;SDS011;1482;51.398;7.128;2023-07-13T02:32:31;4.17;;;2.00;;
2944;SDS011;1482;51.398;7.128;2023-07-13T02:34:57;7.47;;;2.10;;
2944;SDS011;1482;51.398;7.128;2023-07-13T02:37:22;3.03;;;2.30;;
2944;SDS011;1482;51.398;7.128;2023-07-13T02:39:48;2.30;;;2.00;;
2944;SDS011;1482;51.398;7.128;2023-07-13T02:42:13;7.37;;;2.40;;
2944;SDS011;1482;51.398;7.128;2023-07-13T02:44:39;5.57;;;2.57;;
2944;SDS011;1482;51.398;7.128;2023-07-13T02:47:05;4.73;;;2.50;;
2944;SDS011;1482;51.398;7.128;2023-07-13T02:49:30;2.60;;;2.40;;
2944;SDS011;1482;51.398;7.128;2023-07-13T02:51:56;3.90;;;2.57;;
2944;SDS011;1482;51.398;7.128;2023-07-13T02:54:21;5.80;;;2.23;;
2944;SDS011;1482;51.398;7.128;2023-07-13T02:56:47;7.50;;;2.10;;
2944;SDS011;1482;51.398;7.128;2023-07-13T02:59:12;4.87;;;2.60;;
2944;SDS011;1482;51.398;7.128;2023-07-13T03:01:38;5.63;;;1.93;;
2944;SDS011;1482;51.398;7.128;2023-07-13T03:04:04;3.67;;;2.00;;
2944;SDS011;1482;51.398;7.128;2023-07-13T03:06:30;2.50;;;1.83;;
2944;SDS011;1482;51.398;7.128;2023-07-13T03:08:57;7.40;;;3.30;;
2944;SDS011;1482;51.398;7.128;2023-07-13T03:11:23;6.33;;;2.60;;
2944;SDS011;1482;51.398;7.128;2023-07-13T03:13:48;5.13;;;2.40;;
2944;SDS011;1482;51.398;7.128;2023-07-13T03:16:14;6.83;;;2.07;;
2944;SDS011;1482;51.398;7.128;2023-07-13T03:18:41;8.67;;;2.00;;
2944;SDS011;1482;51.398;7.128;2023-07-13T03:21:07;5.33;;;2.47;;
2944;SDS011;1482;51.398;7.128;2023-07-13T03:23:32;4.70;;;1.77;;
2944;SDS011;1482;51.398;7.128;2023-07-13T03:26:08;6.37;;;2.20;;
2944;SDS011;1482;51.398;7.128;2023-07-13T03:28:34;7.00;;;2.40;;
2944;SDS011;1482;51.398;7.128;2023-07-13T03:31:01;6.00;;;2.33;;
2944;SDS011;1482;51.398;7.128;2023-07-13T03:33:31;5.90;;;2.90;;
2944;SDS011;1482;51.398;7.128;2023-07-13T03:35:57;5.53;;;2.70;;
2944;SDS011;1482;51.398;7.128;2023-07-13T03:38:22;5.10;;;2.83;;
2944;SDS011;1482;51.398;7.128;2023-07-13T03:40:48;3.47;;;2.20;;
2944;SDS011;1482;51.398;7.128;2023-07-13T03:43:14;5.50;;;2.57;;
2944;SDS011;1482;51.398;7.128;2023-07-13T03:45:39;5.50;;;2.20;;
2944;SDS011;1482;51.398;7.128;2023-07-13T03:48:05;3.20;;;2.13;;
2944;SDS011;1482;51.398;7.128;2023-07-13T03:50:31;3.90;;;2.60;;
2944;SDS011;1482;51.398;7.128;2023-07-13T03:52:57;5.60;;;2.60;;
2944;SDS011;1482;51.398;7.128;2023-07-13T03:55:23;5.40;;;2.63;;
2944;SDS011;1482;51.398;7.128;2023-07-13T03:57:53;5.60;;;2.10;;
2944;SDS011;1482;51.398;7.128;2023-07-13T04:00:23;7.67;;;2.63;;
2944;SDS011;1482;51.398;7.128;2023-07-13T04:02:48;4.77;;;2.20;;
2944;SDS011;1482;51.398;7.128;2023-07-13T04:05:14;5.47;;;2.67;;
2944;SDS011;1482;51.398;7.128;2023-07-13T04:07:41;5.23;;;2.67;;
2944;SDS011;1482;51.398;7.128;2023-07-13T04:10:06;6.53;;;2.37;;
2944;SDS011;1482;51.398;7.128;2023-07-13T04:12:32;3.43;;;2.40;;
2944;SDS011;1482;51.398;7.128;2023-07-13T04:14:58;5.43;;;2.60;;
2944;SDS011;1482;51.398;7.128;2023-07-13T04:17:23;10.50;;;3.30;;
2944;SDS011;1482;51.398;7.128;2023-07-13T04:19:49;9.40;;;2.63;;
2944;SDS011;1482;51.398;7.128;2023-07-13T04:22:15;8.20;;;2.40;;
2944;SDS011;1482;51.398;7.128;2023-07-13T04:24:40;6.37;;;2.30;;
2944;SDS011;1482;51.398;7.128;2023-07-13T04:27:06;6.00;;;2.33;;
2944;SDS011;1482;51.398;7.128;2023-07-13T04:29:32;10.00;;;2.13;;
2944;SDS011;1482;51.398;7.128;2023-07-13T04:31:58;11.23;;;2.77;;
2944;SDS011;1482;51.398;7.128;2023-07-13T04:34:23;7.47;;;2.57;;
2944;SDS011;1482;51.398;7.128;2023-07-13T04:36:49;10.00;;;2.53;;
2944;SDS011;1482;51.398;7.128;2023-07-13T04:39:15;5.23;;;2.23;;
2944;SDS011;1482;51.398;7.128;2023-07-13T04:41:41;7.90;;;2.13;;
2944;SDS011;1482;51.398;7.128;2023-07-13T04:44:06;6.20;;;2.53;;
2944;SDS011;1482;51.398;7.128;2023-07-13T04:46:32;2.50;;;1.80;;
2944;SDS011;1482;51.398;7.128;2023-07-13T04:48:57;3.57;;;2.30;;
2944;SDS011;1482;51.398;7.128;2023-07-13T04:51:23;4.63;;;2.30;;
2944;SDS011;1482;51.398;7.128;2023-07-13T04:53:49;7.53;;;1.93;;
2944;SDS011;1482;51.398;7.128;2023-07-13T04:56:15;3.23;;;1.53;;
2944;SDS011;1482;51.398;7.128;2023-07-13T04:58:41;9.97;;;2.47;;
2944;SDS011;1482;51.398;7.128;2023-07-13T05:01:06;3.07;;;1.97;;
2944;SDS011;1482;51.398;7.128;2023-07-13T05:03:33;5.93;;;2.50;;
2944;SDS011;1482;51.398;7.128;2023-07-13T05:06:04;4.00;;;1.93;;
2944;SDS011;1482;51.398;7.128;2023-07-13T05:08:31;3.20;;;1.80;;
2944;SDS011;1482;51.398;7.128;2023-07-13T05:10:59;8.13;;;2.97;;
2944;SDS011;1482;51.398;7.128;2023-07-13T05:13:25;5.03;;;2.30;;
2944;SDS011;1482;51.398;7.128;2023-07-13T05:16:00;4.33;;;1.70;;
2944;SDS011;1482;51.398;7.128;2023-07-13T05:18:27;6.93;;;2.40;;
2944;SDS011;1482;51.398;7.128;2023-07-13T05:21:00;6.23;;;2.63;;
2944;SDS011;1482;51.398;7.128;2023-07-13T05:23:32;4.73;;;2.63;;
2944;SDS011;1482;51.398;7.128;2023-07-13T05:25:58;4.30;;;2.23;;
2944;SDS011;1482;51.398;7.128;2023-07-13T05:28:24;4.77;;;3.40;;
2944;SDS011;1482;51.398;7.128;2023-07-13T05:30:51;6.00;;;2.47;;
2944;SDS011;1482;51.398;7.128;2023-07-13T05:33:17;7.43;;;2.60;;
2944;SDS011;1482;51.398;7.128;2023-07-13T05:35:42;6.60;;;2.43;;
2944;SDS011;1482;51.398;7.128;2023-07-13T05:38:08;8.00;;;3.73;;
2944;SDS011;1482;51.398;7.128;2023-07-13T05:40:33;9.23;;;2.73;;
2944;SDS011;1482;51.398;7.128;2023-07-13T05:42:59;7.60;;;2.60;;
2944;SDS011;1482;51.398;7.128;2023-07-13T05:45:24;5.00;;;3.50;;
2944;SDS011;1482;51.398;7.128;2023-07-13T05:47:51;7.90;;;4.43;;
2944;SDS011;1482;51.398;7.128;2023-07-13T05:50:17;9.20;;;3.70;;
2944;SDS011;1482;51.398;7.128;2023-07-13T05:52:43;6.00;;;5.47;;
2944;SDS011;1482;51.398;7.128;2023-07-13T05:55:08;6.30;;;5.10;;
2944;SDS011;1482;51.398;7.128;2023-07-13T05:57:34;4.90;;;3.40;;
2944;SDS011;1482;51.398;7.128;2023-07-13T05:59:59;7.20;;;4.43;;
2944;SDS011;1482;51.398;7.128;2023-07-13T06:02:25;6.50;;;5.13;;
2944;SDS011;1482;51.398;7.128;2023-07-13T06:04:51;6.83;;;2.40;;
2944;SDS011;1482;51.398;7.128;2023-07-13T06:07:17;6.00;;;3.27;;
2944;SDS011;1482;51.398;7.128;2023-07-13T06:09:42;6.47;;;3.00;;
2944;SDS011;1482;51.398;7.128;2023-07-13T06:12:08;6.67;;;2.93;;
2944;SDS011;1482;51.398;7.128;2023-07-13T06:14:34;18.83;;;3.03;;
2944;SDS011;1482;51.398;7.128;2023-07-13T06:16:59;4.60;;;2.47;;
2944;SDS011;1482;51.398;7.128;2023-07-13T06:19:25;5.90;;;2.70;;
2944;SDS011;1482;51.398;7.128;2023-07-13T06:21:50;9.00;;;3.00;;
2944;SDS011;1482;51.398;7.128;2023-07-13T06:24:16;5.67;;;2.60;;
2944;SDS011;1482;51.398;7.128;2023-07-13T06:26:42;5.17;;;2.73;;
2944;SDS011;1482;51.398;7.128;2023-07-13T06:29:07;5.10;;;2.50;;
2944;SDS011;1482;51.398;7.128;2023-07-13T06:31:33;7.10;;;3.90;;
2944;SDS011;1482;51.398;7.128;2023-07-13T06:33:58;6.87;;;2.50;;
2944;SDS011;1482;51.398;7.128;2023-07-13T06:36:24;6.63;;;2.53;;
2944;SDS011;1482;51.398;7.128;2023-07-13T06:38:49;6.97;;;3.20;;
2944;SDS011;1482;51.398;7.128;2023-07-13T06:41:15;6.80;;;2.97;;
2944;SDS011;1482;51.398;7.128;2023-07-13T06:43:40;10.53;;;3.07;;
2944;SDS011;1482;51.398;7.128;2023-07-13T06:46:06;5.57;;;3.13;;
2944;SDS011;1482;51.398;7.128;2023-07-13T06:48:32;5.33;;;3.20;;
2944;SDS011;1482;51.398;7.128;2023-07-13T06:50:57;6.17;;;3.13;;
2944;SDS011;1482;51.398;7.128;2023-07-13T06:53:23;11.60;;;3.53;;
2944;SDS011;1482;51.398;7.128;2023-07-13T06:55:49;4.83;;;3.10;;
2944;SDS011;1482;51.398;7.128;2023-07-13T06:58:16;6.03;;;2.90;;
2944;SDS011;1482;51.398;7.128;2023-07-13T07:00:43;7.60;;;3.40;;
2944;SDS011;1482;51.398;7.128;2023-07-13T07:03:09;4.97;;;3.00;;
2944;SDS011;1482;51.398;7.128;2023-07-13T07:05:34;5.00;;;3.07;;
2944;SDS011;1482;51.398;7.128;2023-07-13T07:08:00;5.73;;;3.50;;
2944;SDS011;1482;51.398;7.128;2023-07-13T07:10:26;5.10;;;3.03;;
2944;SDS011;1482;51.398;7.128;2023-07-13T07:12:54;11.50;;;3.37;;
2944;SDS011;1482;51.398;7.128;2023-07-13T07:15:20;6.87;;;3.43;;
2944;SDS011;1482;51.398;7.128;2023-07-13T07:17:45;5.17;;;3.10;;
2944;SDS011;1482;51.398;7.128;2023-07-13T07:20:11;7.40;;;3.83;;
2944;SDS011;1482;51.398;7.128;2023-07-13T07:22:37;5.73;;;3.90;;
2944;SDS011;1482;51.398;7.128;2023-07-13T07:25:03;6.53;;;3.87;;
2944;SDS011;1482;51.398;7.128;2023-07-13T07:27:29;6.13;;;3.20;;
2944;SDS011;1482;51.398;7.128;2023-07-13T07:29:54;4.70;;;2.97;;
2944;SDS011;1482;51.398;7.128;2023-07-13T07:32:22;6.00;;;2.90;;
2944;SDS011;1482;51.398;7.128;2023-07-13T07:34:48;6.30;;;3.33;;
2944;SDS011;1482;51.398;7.128;2023-07-13T07:37:13;5.60;;;3.80;;
2944;SDS011;1482;51.398;7.128;2023-07-13T07:39:39;6.03;;;3.20;;
2944;SDS011;1482;51.398;7.128;2023-07-13T07:42:05;10.97;;;3.70;;
2944;SDS011;1482;51.398;7.128;2023-07-13T07:44:31;11.60;;;3.23;;
2944;SDS011;1482;51.398;7.128;2023-07-13T07:46:58;4.90;;;3.30;;
2944;SDS011;1482;51.398;7.128;2023-07-13T07:49:23;5.90;;;2.83;;
2944;SDS011;1482;51.398;7.128;2023-07-13T07:51:49;11.30;;;3.70;;
2944;SDS011;1482;51.398;7.128;2023-07-13T07:54:15;6.57;;;3.30;;
2944;SDS011;1482;51.398;7.128;2023-07-13T07:56:40;6.67;;;4.07;;
2944;SDS011;1482;51.398;7.128;2023-07-13T07:59:06;6.57;;;2.90;;
2944;SDS011;1482;51.398;7.128;2023-07-13T08:01:31;7.00;;;2.90;;
2944;SDS011;1482;51.398;7.128;2023-07-13T08:03:57;9.83;;;3.60;;
2944;SDS011;1482;51.398;7.128;2023-07-13T08:06:23;7.90;;;4.10;;
2944;SDS011;1482;51.398;7.128;2023-07-13T08:08:48;8.13;;;5.10;;
2944;SDS011;1482;51.398;7.128;2023-07-13T08:11:15;4.63;;;3.97;;
2944;SDS011;1482;51.398;7.128;2023-07-13T08:13:41;7.07;;;3.97;;
2944;SDS011;1482;51.398;7.128;2023-07-13T08:16:06;6.40;;;3.87;;
2944;SDS011;1482;51.398;7.128;2023-07-13T08:18:32;5.97;;;3.33;;
2944;SDS011;1482;51.398;7.128;2023-07-13T08:20:58;11.17;;;3.80;;
2944;SDS011;1482;51.398;7.128;2023-07-13T08:23:24;3.77;;;3.40;;
2944;SDS011;1482;51.398;7.128;2023-07-13T08:25:53;7.30;;;3.30;;
2944;SDS011;1482;51.398;7.128;2023-07-13T08:28:20;6.20;;;3.40;;
2944;SDS011;1482;51.398;7.128;2023-07-13T08:30:46;7.00;;;3.77;;
2944;SDS011;1482;51.398;7.128;2023-07-13T08:33:14;5.50;;;3.70;;
2944;SDS011;1482;51.398;7.128;2023-07-13T08:35:47;5.67;;;3.53;;
2944;SDS011;1482;51.398;7.128;2023-07-13T08:38:13;7.67;;;3.47;;
2944;SDS011;1482;51.398;7.128;2023-07-13T08:40:39;9.00;;;4.27;;
2944;SDS011;1482;51.398;7.128;2023-07-13T08:43:07;6.77;;;4.70;;
2944;SDS011;1482;51.398;7.128;2023-07-13T08:45:42;8.40;;;4.90;;
2944;SDS011;1482;51.398;7.128;2023-07-13T08:48:30;9.50;;;4.83;;
2944;SDS011;1482;51.398;7.128;2023-07-13T08:51:09;8.03;;;4.23;;
2944;SDS011;1482;51.398;7.128;2023-07-13T08:54:05;6.70;;;3.93;;
2944;SDS011;1482;51.398;7.128;2023-07-13T08:56:43;6.33;;;4.57;;
2944;SDS011;1482;51.398;7.128;2023-07-13T08:59:11;8.67;;;4.80;;
2944;SDS011;1482;51.398;7.128;2023-07-13T09:04:43;6.53;;;4.10;;
2944;SDS011;1482;51.398;7.128;2023-07-13T09:10:09;7.73;;;4.20;;
2944;SDS011;1482;51.398;7.128;2023-07-13T09:13:00;6.93;;;4.80;;
2944;SDS011;1482;51.398;7.128;2023-07-13T09:15:41;7.03;;;4.77;;
2944;SDS011;1482;51.398;7.128;2023-07-13T09:18:23;6.90;;;4.00;;
2944;SDS011;1482;51.398;7.128;2023-07-13T09:20:53;10.00;;;4.77;;
2944;SDS011;1482;51.398;7.128;2023-07-13T09:23:22;5.77;;;4.10;;
2944;SDS011;1482;51.398;7.128;2023-07-13T09:25:51;9.67;;;5.27;;
2944;SDS011;1482;51.398;7.128;2023-07-13T09:28:25;14.07;;;4.63;;
2944;SDS011;1482;51.398;7.128;2023-07-13T09:30:56;6.50;;;5.23;;
2944;SDS011;1482;51.398;7.128;2023-07-13T09:33:32;6.03;;;3.90;;
2944;SDS011;1482;51.398;7.128;2023-07-13T09:36:00;14.60;;;7.10;;
2944;SDS011;1482;51.398;7.128;2023-07-13T09:38:27;7.33;;;4.03;;
2944;SDS011;1482;51.398;7.128;2023-07-13T09:44:06;6.70;;;3.37;;
2944;SDS011;1482;51.398;7.128;2023-07-13T09:46:36;7.17;;;4.00;;
2944;SDS011;1482;51.398;7.128;2023-07-13T09:49:03;4.70;;;4.30;;
2944;SDS011;1482;51.398;7.128;2023-07-13T09:51:29;8.60;;;4.07;;
2944;SDS011;1482;51.398;7.128;2023-07-13T09:53:54;7.30;;;3.73;;
2944;SDS011;1482;51.398;7.128;2023-07-13T09:56:21;6.90;;;4.13;;
2944;SDS011;1482;51.398;7.128;2023-07-13T09:58:48;10.00;;;3.97;;
2944;SDS011;1482;51.398;7.128;2023-07-13T10:01:14;9.80;;;4.57;;
2944;SDS011;1482;51.398;7.128;2023-07-13T10:03:42;7.90;;;4.30;;
2944;SDS011;1482;51.398;7.128;2023-07-13T10:06:19;6.33;;;3.63;;
2944;SDS011;1482;51.398;7.128;2023-07-13T10:08:49;8.80;;;4.60;;
2944;SDS011;1482;51.398;7.128;2023-07-13T10:11:22;10.10;;;4.53;;
2944;SDS011;1482;51.398;7.128;2023-07-13T10:13:52;6.97;;;4.23;;
2944;SDS011;1482;51.398;7.128;2023-07-13T10:16:26;9.03;;;4.30;;
2944;SDS011;1482;51.398;7.128;2023-07-13T10:18:58;5.80;;;4.10;;
2944;SDS011;1482;51.398;7.128;2023-07-13T10:21:28;6.70;;;3.73;;
2944;SDS011;1482;51.398;7.128;2023-07-13T10:24:10;6.80;;;3.60;;
2944;SDS011;1482;51.398;7.128;2023-07-13T10:27:00;9.87;;;5.43;;
2944;SDS011;1482;51.398;7.128;2023-07-13T10:29:29;7.60;;;4.27;;
2944;SDS011;1482;51.398;7.128;2023-07-13T10:32:00;3.97;;;3.53;;
2944;SDS011;1482;51.398;7.128;2023-07-13T10:34:26;8.00;;;4.30;;
2944;SDS011;1482;51.398;7.128;2023-07-13T10:36:52;8.53;;;4.10;;
2944;SDS011;1482;51.398;7.128;2023-07-13T10:39:20;8.03;;;4.47;;
2944;SDS011;1482;51.398;7.128;2023-07-13T10:41:54;5.23;;;3.23;;
2944;SDS011;1482;51.398;7.128;2023-07-13T10:44:25;7.27;;;4.03;;
2944;SDS011;1482;51.398;7.128;2023-07-13T10:47:11;3.70;;;3.07;;
2944;SDS011;1482;51.398;7.128;2023-07-13T10:49:40;7.43;;;3.33;;
2944;SDS011;1482;51.398;7.128;2023-07-13T10:52:28;7.17;;;3.80;;
2944;SDS011;1482;51.398;7.128;2023-07-13T10:58:23;4.63;;;3.00;;
2944;SDS011;1482;51.398;7.128;2023-07-13T11:01:03;5.07;;;3.30;;
2944;SDS011;1482;51.398;7.128;2023-07-13T11:03:54;7.40;;;4.13;;
2944;SDS011;1482;51.398;7.128;2023-07-13T11:08:57;5.10;;;3.50;;
2944;SDS011;1482;51.398;7.128;2023-07-13T11:18:50;4.83;;;3.50;;
2944;SDS011;1482;51.398;7.128;2023-07-13T11:21:17;6.07;;;3.60;;
2944;SDS011;1482;51.398;7.128;2023-07-13T11:23:44;5.30;;;3.53;;
2944;SDS011;1482;51.398;7.128;2023-07-13T11:32:10;3.63;;;3.33;;
2944;SDS011;1482;51.398;7.128;2023-07-13T11:34:51;7.17;;;3.00;;
2944;SDS011;1482;51.398;7.128;2023-07-13T11:37:18;8.67;;;4.37;;
2944;SDS011;1482;51.398;7.128;2023-07-13T11:39:45;6.83;;;4.40;;
2944;SDS011;1482;51.398;7.128;2023-07-13T11:42:14;5.67;;;3.83;;
2944;SDS011;1482;51.398;7.128;2023-07-13T11:44:42;4.90;;;2.70;;
2944;SDS011;1482;51.398;7.128;2023-07-13T11:47:14;7.67;;;2.93;;
2944;SDS011;1482;51.398;7.128;2023-07-13T11:49:43;4.63;;;2.90;;
2944;SDS011;1482;51.398;7.128;2023-07-13T11:52:14;4.83;;;2.70;;
2944;SDS011;1482;51.398;7.128;2023-07-13T11:54:46;7.03;;;4.40;;
2944;SDS011;1482;51.398;7.128;2023-07-13T11:57:24;6.87;;;4.17;;
2944;SDS011;1482;51.398;7.128;2023-07-13T11:59:54;8.40;;;3.67;;
2944;SDS011;1482;51.398;7.128;2023-07-13T12:02:26;6.13;;;3.60;;
2944;SDS011;1482;51.398;7.128;2023-07-13T12:05:01;3.17;;;2.87;;
2944;SDS011;1482;51.398;7.128;2023-07-13T12:07:30;4.77;;;3.50;;
2944;SDS011;1482;51.398;7.128;2023-07-13T12:10:02;4.83;;;3.20;;
2944;SDS011;1482;51.398;7.128;2023-07-13T12:15:23;3.73;;;2.90;;
2944;SDS011;1482;51.398;7.128;2023-07-13T12:17:54;6.50;;;2.60;;
2944;SDS011;1482;51.398;7.128;2023-07-13T12:20:26;8.00;;;3.33;;
2944;SDS011;1482;51.398;7.128;2023-07-13T12:22:55;4.53;;;3.20;;
2944;SDS011;1482;51.398;7.128;2023-07-13T12:25:28;8.00;;;3.63;;
2944;SDS011;1482;51.398;7.128;2023-07-13T12:27:55;4.53;;;3.20;;
2944;SDS011;1482;51.398;7.128;2023-07-13T12:30:25;5.60;;;4.30;;
2944;SDS011;1482;51.398;7.128;2023-07-13T12:32:56;7.63;;;4.00;;
2944;SDS011;1482;51.398;7.128;2023-07-13T12:35:28;4.10;;;3.10;;
2944;SDS011;1482;51.398;7.128;2023-07-13T12:37:56;6.87;;;4.37;;
2944;SDS011;1482;51.398;7.128;2023-07-13T12:40:27;4.40;;;3.40;;
2944;SDS011;1482;51.398;7.128;2023-07-13T12:42:57;4.80;;;2.90;;
2944;SDS011;1482;51.398;7.128;2023-07-13T12:45:25;5.23;;;3.53;;
2944;SDS011;1482;51.398;7.128;2023-07-13T12:48:14;4.77;;;3.07;;
2944;SDS011;1482;51.398;7.128;2023-07-13T12:50:40;5.67;;;2.77;;
2944;SDS011;1482;51.398;7.128;2023-07-13T12:53:13;3.73;;;3.10;;
2944;SDS011;1482;51.398;7.128;2023-07-13T12:55:44;4.57;;;2.90;;
2944;SDS011;1482;51.398;7.128;2023-07-13T12:58:18;2.90;;;2.60;;
2944;SDS011;1482;51.398;7.128;2023-07-13T13:01:02;4.83;;;2.97;;
2944;SDS011;1482;51.398;7.128;2023-07-13T13:03:40;5.40;;;3.03;;
2944;SDS011;1482;51.398;7.128;2023-07-13T13:08:41;4.10;;;2.63;;
2944;SDS011;1482;51.398;7.128;2023-07-13T13:11:08;9.13;;;3.73;;
2944;SDS011;1482;51.398;7.128;2023-07-13T13:13:34;5.10;;;2.40;;
2944;SDS011;1482;51.398;7.128;2023-07-13T13:18:57;4.40;;;2.40;;
2944;SDS011;1482;51.398;7.128;2023-07-13T13:21:27;4.30;;;3.50;;
2944;SDS011;1482;51.398;7.128;2023-07-13T13:23:53;4.60;;;4.20;;
2944;SDS011;1482;51.398;7.128;2023-07-13T13:26:19;5.37;;;3.83;;
2944;SDS011;1482;51.398;7.128;2023-07-13T13:28:46;5.80;;;3.90;;
2944;SDS011;1482;51.398;7.128;2023-07-13T13:31:14;7.03;;;4.00;;
2944;SDS011;1482;51.398;7.128;2023-07-13T13:33:41;3.93;;;2.73;;
2944;SDS011;1482;51.398;7.128;2023-07-13T13:36:13;5.10;;;3.50;;
2944;SDS011;1482;51.398;7.128;2023-07-13T13:38:43;11.57;;;3.17;;
2944;SDS011;1482;51.398;7.128;2023-07-13T13:41:10;5.07;;;3.10;;
2944;SDS011;1482;51.398;7.128;2023-07-13T13:43:38;6.07;;;3.50;;
2944;SDS011;1482;51.398;7.128;2023-07-13T13:46:05;4.50;;;3.50;;
2944;SDS011;1482;51.398;7.128;2023-07-13T13:48:47;5.03;;;3.80;;
2944;SDS011;1482;51.398;7.128;2023-07-13T13:51:17;3.40;;;3.10;;
2944;SDS011;1482;51.398;7.128;2023-07-13T13:53:44;13.50;;;3.50;;
2944;SDS011;1482;51.398;7.128;2023-07-13T13:56:11;5.67;;;3.60;;
2944;SDS011;1482;51.398;7.128;2023-07-13T13:58:37;3.63;;;3.00;;
2944;SDS011;1482;51.398;7.128;2023-07-13T14:01:03;6.60;;;3.53;;
2944;SDS011;1482;51.398;7.128;2023-07-13T14:03:33;7.67;;;3.57;;
2944;SDS011;1482;51.398;7.128;2023-07-13T14:05:59;4.27;;;2.73;;
2944;SDS011;1482;51.398;7.128;2023-07-13T14:08:25;3.60;;;3.30;;
2944;SDS011;1482;51.398;7.128;2023-07-13T14:10:51;7.53;;;4.30;;
2944;SDS011;1482;51.398;7.128;2023-07-13T14:13:26;10.17;;;3.33;;
2944;SDS011;1482;51.398;7.128;2023-07-13T14:15:54;7.40;;;4.47;;
2944;SDS011;1482;51.398;7.128;2023-07-13T14:18:20;12.13;;;4.17;;
2944;SDS011;1482;51.398;7.128;2023-07-13T14:20:46;5.10;;;4.30;;
2944;SDS011;1482;51.398;7.128;2023-07-13T14:23:13;4.73;;;4.10;;
2944;SDS011;1482;51.398;7.128;2023-07-13T14:25:41;4.10;;;3.67;;
2944;SDS011;1482;51.398;7.128;2023-07-13T14:28:28;6.90;;;3.80;;
2944;SDS011;1482;51.398;7.128;2023-07-13T14:30:53;4.97;;;3.93;;
2944;SDS011;1482;51.398;7.128;2023-07-13T14:33:19;5.60;;;3.93;;
2944;SDS011;1482;51.398;7.128;2023-07-13T14:35:45;4.20;;;3.87;;
2944;SDS011;1482;51.398;7.128;2023-07-13T14:38:13;7.70;;;3.90;;
2944;SDS011;1482;51.398;7.128;2023-07-13T14:40:41;6.77;;;4.57;;
2944;SDS011;1482;51.398;7.128;2023-07-13T14:43:10;4.70;;;4.20;;
2944;SDS011;1482;51.398;7.128;2023-07-13T14:45:38;12.97;;;3.73;;
2944;SDS011;1482;51.398;7.128;2023-07-13T14:48:12;4.50;;;3.80;;
2944;SDS011;1482;51.398;7.128;2023-07-13T14:50:40;4.83;;;4.20;;
2944;SDS011;1482;51.398;7.128;2023-07-13T14:53:08;6.57;;;4.10;;
2944;SDS011;1482;51.398;7.128;2023-07-13T14:55:35;7.83;;;3.80;;
2944;SDS011;1482;51.398;7.128;2023-07-13T14:58:01;6.20;;;4.20;;
2944;SDS011;1482;51.398;7.128;2023-07-13T15:00:27;8.07;;;5.10;;
2944;SDS011;1482;51.398;7.128;2023-07-13T15:02:54;6.67;;;5.10;;
2944;SDS011;1482;51.398;7.128;2023-07-13T15:05:26;5.90;;;4.07;;
2944;SDS011;1482;51.398;7.128;2023-07-13T15:07:56;8.37;;;5.37;;
2944;SDS011;1482;51.398;7.128;2023-07-13T15:10:24;7.40;;;4.40;;
2944;SDS011;1482;51.398;7.128;2023-07-13T15:12:52;9.47;;;4.03;;
2944;SDS011;1482;51.398;7.128;2023-07-13T15:15:21;12.57;;;5.40;;
2944;SDS011;1482;51.398;7.128;2023-07-13T15:17:47;9.60;;;4.17;;
2944;SDS011;1482;51.398;7.128;2023-07-13T15:20:34;6.03;;;4.70;;
2944;SDS011;1482;51.398;7.128;2023-07-13T15:23:01;5.40;;;4.90;;
2944;SDS011;1482;51.398;7.128;2023-07-13T15:25:28;7.77;;;4.13;;
2944;SDS011;1482;51.398;7.128;2023-07-13T15:27:55;10.23;;;3.97;;
2944;SDS011;1482;51.398;7.128;2023-07-13T15:30:22;5.27;;;4.30;;
2944;SDS011;1482;51.398;7.128;2023-07-13T15:32:50;5.50;;;4.50;;
2944;SDS011;1482;51.398;7.128;2023-07-13T15:35:17;5.30;;;4.33;;
2944;SDS011;1482;51.398;7.128;2023-07-13T15:37:44;5.87;;;4.70;;
2944;SDS011;1482;51.398;7.128;2023-07-13T15:40:11;5.10;;;4.60;;
2944;SDS011;1482;51.398;7.128;2023-07-13T15:42:38;4.60;;;4.10;;
2944;SDS011;1482;51.398;7.128;2023-07-13T15:45:10;10.13;;;5.20;;
2944;SDS011;1482;51.398;7.128;2023-07-13T15:47:40;8.63;;;4.87;;
2944;SDS011;1482;51.398;7.128;2023-07-13T15:50:11;4.90;;;4.33;;
2944;SDS011;1482;51.398;7.128;2023-07-13T15:52:40;5.30;;;3.97;;
2944;SDS011;1482;51.398;7.128;2023-07-13T15:55:09;5.33;;;3.87;;
2944;SDS011;1482;51.398;7.128;2023-07-13T15:57:36;5.60;;;3.30;;
2944;SDS011;1482;51.398;7.128;2023-07-13T16:00:02;7.23;;;3.50;;
2944;SDS011;1482;51.398;7.128;2023-07-13T16:02:30;5.00;;;3.80;;